createdAt,value
2019-04-06T00:02:23.788Z,8.00
2019-04-06T00:04:52.852Z,8.00
2019-04-06T00:07:21.880Z,8.00
2019-04-06T00:09:50.946Z,8.00
2019-04-06T00:12:20.067Z,7.90
2019-04-06T00:14:49.185Z,7.90
2019-04-06T00:17:18.256Z,7.90
2019-04-06T00:19:47.343Z,7.90
2019-04-06T00:22:15.797Z,7.90
2019-04-06T00:24:44.969Z,7.80
2019-04-06T00:27:13.461Z,7.80
2019-04-06T00:29:42.520Z,7.80
2019-04-06T00:32:16.193Z,7.80
2019-04-06T00:34:45.279Z,7.80
2019-04-06T00:37:14.390Z,7.80
2019-04-06T00:39:43.447Z,7.70
2019-04-06T00:42:12.536Z,7.70
2019-04-06T00:44:41.073Z,7.70
2019-04-06T00:47:10.189Z,7.70
2019-04-06T00:49:39.261Z,7.60
2019-04-06T00:52:08.394Z,7.60
2019-04-06T00:54:37.445Z,7.60
2019-04-06T00:57:06.036Z,7.60
2019-04-06T00:59:35.075Z,7.50
2019-04-06T01:02:04.943Z,7.50
2019-04-06T01:04:34.012Z,7.40
2019-04-06T01:07:03.155Z,7.40
2019-04-06T01:09:32.311Z,7.40
2019-04-06T01:12:01.388Z,7.40
2019-04-06T01:14:29.935Z,7.40
2019-04-06T01:16:59.034Z,7.30
2019-04-06T01:19:28.092Z,7.30
2019-04-06T01:21:57.283Z,7.20
2019-04-06T01:24:25.745Z,7.10
2019-04-06T01:26:54.384Z,7.10
2019-04-06T01:29:23.449Z,7.00
2019-04-06T01:31:51.996Z,7.00
2019-04-06T01:34:20.462Z,7.00
2019-04-06T01:36:49.528Z,6.90
2019-04-06T01:39:18.092Z,6.90
2019-04-06T01:41:47.233Z,6.90
2019-04-06T01:44:15.689Z,6.90
2019-04-06T01:46:44.799Z,6.90
2019-04-06T01:49:13.277Z,6.90
2019-04-06T01:51:41.768Z,6.80
2019-04-06T01:54:10.244Z,6.80
2019-04-06T01:56:38.738Z,6.80
2019-04-06T01:59:07.777Z,6.80
2019-04-06T02:01:43.764Z,6.80
2019-04-06T02:04:12.240Z,6.80
2019-04-06T02:06:40.705Z,6.80
2019-04-06T02:09:09.177Z,6.80
2019-04-06T02:11:37.729Z,6.80
2019-04-06T02:14:06.194Z,6.80
2019-04-06T02:16:34.666Z,6.80
2019-04-06T02:19:03.265Z,6.80
2019-04-06T02:21:31.814Z,6.70
2019-04-06T02:24:00.869Z,6.70
2019-04-06T02:26:31.207Z,6.70
2019-04-06T02:29:00.570Z,6.70
2019-04-06T02:31:36.744Z,6.70
2019-04-06T02:34:21.867Z,6.70
2019-04-06T02:37:07.967Z,6.60
2019-04-06T02:39:56.246Z,6.60
2019-04-06T02:42:28.841Z,6.60
2019-04-06T02:44:57.330Z,6.60
2019-04-06T02:47:25.824Z,6.60
2019-04-06T02:49:54.326Z,6.60
2019-04-06T02:52:22.840Z,6.70
2019-04-06T02:54:51.331Z,6.70
2019-04-06T02:57:19.870Z,6.70
2019-04-06T02:59:48.362Z,6.70
2019-04-06T03:02:16.907Z,6.70
2019-04-06T03:04:45.382Z,6.60
2019-04-06T03:07:13.855Z,6.60
2019-04-06T03:09:42.408Z,6.60
2019-04-06T03:12:10.953Z,6.60
2019-04-06T03:14:39.505Z,6.60
2019-04-06T03:17:08.114Z,6.70
2019-04-06T03:19:37.072Z,6.70
2019-04-06T03:22:05.778Z,6.70
2019-04-06T03:24:34.260Z,6.70
2019-04-06T03:27:03.264Z,6.70
2019-04-06T03:29:31.872Z,6.70
2019-04-06T03:32:00.483Z,6.70
2019-04-06T03:34:29.120Z,6.70
2019-04-06T03:36:57.693Z,6.70
2019-04-06T03:39:26.181Z,6.70
2019-04-06T03:41:54.654Z,6.70
2019-04-06T03:44:23.265Z,6.70
2019-04-06T03:46:51.890Z,6.70
2019-04-06T03:49:20.376Z,6.70
2019-04-06T03:51:48.847Z,6.80
2019-04-06T03:54:17.575Z,6.90
2019-04-06T03:56:46.768Z,6.90
2019-04-06T03:59:15.241Z,7.00
2019-04-06T04:01:43.713Z,7.00
2019-04-06T04:04:12.187Z,7.10
2019-04-06T04:06:40.681Z,7.10
2019-04-06T04:09:09.158Z,7.10
2019-04-06T04:11:37.631Z,7.10
2019-04-06T04:14:06.203Z,7.10
2019-04-06T04:16:34.712Z,7.10
2019-04-06T04:19:03.511Z,7.10
2019-04-06T04:21:32.127Z,7.10
2019-04-06T04:24:00.839Z,7.10
2019-04-06T04:26:29.379Z,7.10
2019-04-06T04:28:57.915Z,7.10
2019-04-06T04:31:26.386Z,7.10
2019-04-06T04:33:55.444Z,7.20
2019-04-06T04:36:24.483Z,7.20
2019-04-06T04:38:52.974Z,7.20
2019-04-06T04:41:22.008Z,7.10
2019-04-06T04:43:50.507Z,7.10
2019-04-06T04:46:18.986Z,7.10
2019-04-06T04:48:47.466Z,7.10
2019-04-06T04:51:15.936Z,7.20
2019-04-06T04:53:44.428Z,7.20
2019-04-06T04:56:12.882Z,7.30
2019-04-06T04:58:42.167Z,7.40
2019-04-06T05:01:10.784Z,7.40
2019-04-06T05:03:39.267Z,7.40
2019-04-06T05:06:07.804Z,7.40
2019-04-06T05:08:36.838Z,7.40
2019-04-06T05:11:05.523Z,7.40
2019-04-06T05:13:34.580Z,7.40
2019-04-06T05:16:09.259Z,7.50
2019-04-06T05:18:39.234Z,7.60
2019-04-06T05:21:08.910Z,7.70
2019-04-06T05:23:37.956Z,7.80
2019-04-06T05:26:07.485Z,7.90
2019-04-06T05:28:36.604Z,8.00
2019-04-06T05:31:06.122Z,8.00
2019-04-06T05:33:35.162Z,8.10
2019-04-06T05:36:04.452Z,8.10
2019-04-06T05:38:33.578Z,8.20
2019-04-06T05:41:02.670Z,8.20
2019-04-06T05:43:31.868Z,8.20
2019-04-06T05:46:01.444Z,8.30
2019-04-06T05:48:30.644Z,8.20
2019-04-06T05:50:59.703Z,8.20
2019-04-06T05:53:28.759Z,8.20
2019-04-06T05:55:57.827Z,8.20
2019-04-06T05:58:26.877Z,8.30
2019-04-06T06:00:55.955Z,8.40
2019-04-06T06:03:25.019Z,8.40
2019-04-06T06:05:54.161Z,8.30
2019-04-06T06:08:23.238Z,8.30
2019-04-06T06:10:52.347Z,8.40
2019-04-06T06:13:21.541Z,8.50
2019-04-06T06:15:50.695Z,8.60
2019-04-06T06:18:27.390Z,8.70
2019-04-06T06:20:52.363Z,8.80
2019-04-06T06:23:21.460Z,8.90
2019-04-06T06:25:50.518Z,9.00
2019-04-06T06:28:19.595Z,9.00
2019-04-06T06:30:48.914Z,9.00
2019-04-06T06:33:18.016Z,9.00
2019-04-06T06:35:47.068Z,9.10
2019-04-06T06:38:16.209Z,9.20
2019-04-06T06:40:45.270Z,9.20
2019-04-06T06:43:14.303Z,9.30
2019-04-06T06:45:43.621Z,9.40
2019-04-06T06:48:12.704Z,9.50
2019-04-06T06:50:42.011Z,9.60
2019-04-06T06:53:11.280Z,9.70
2019-04-06T06:55:40.447Z,9.80
2019-04-06T06:58:09.510Z,9.80
2019-04-06T07:00:38.563Z,9.80
2019-04-06T07:03:07.675Z,9.70
2019-04-06T07:05:36.818Z,9.70
2019-04-06T07:08:06.057Z,9.80
2019-04-06T07:10:35.210Z,9.90
2019-04-06T07:13:04.282Z,10.00
2019-04-06T07:15:33.404Z,10.20
2019-04-06T07:18:02.458Z,10.30
2019-04-06T07:20:31.573Z,10.30
2019-04-06T07:23:00.638Z,10.40
2019-04-06T07:25:29.776Z,10.60
2019-04-06T07:27:58.952Z,10.60
2019-04-06T07:30:28.198Z,10.70
2019-04-06T07:32:57.245Z,10.80
2019-04-06T07:35:26.421Z,11.00
2019-04-06T07:37:55.511Z,11.10
2019-04-06T07:40:24.568Z,11.10
2019-04-06T07:42:53.683Z,11.20
2019-04-06T07:45:22.768Z,11.20
2019-04-06T07:47:51.797Z,11.10
2019-04-06T07:50:21.025Z,11.20
2019-04-06T07:52:50.144Z,11.30
2019-04-06T07:55:19.209Z,11.30
2019-04-06T07:57:48.252Z,11.50
2019-04-06T08:00:17.645Z,11.50
2019-04-06T08:02:46.681Z,11.60
2019-04-06T08:05:15.754Z,11.70
2019-04-06T08:07:44.853Z,11.80
2019-04-06T08:10:14.078Z,11.90
2019-04-06T08:12:43.175Z,12.10
2019-04-06T08:15:12.305Z,12.30
2019-04-06T08:17:41.339Z,12.40
2019-04-06T08:20:10.605Z,12.40
2019-04-06T08:22:39.791Z,12.50
2019-04-06T08:25:09.087Z,12.80
2019-04-06T08:27:38.395Z,12.80
2019-04-06T08:30:12.284Z,12.90
2019-04-06T08:32:41.499Z,12.70
2019-04-06T08:35:12.272Z,12.40
2019-04-06T08:37:41.346Z,12.20
2019-04-06T08:40:11.111Z,11.80
2019-04-06T08:42:40.267Z,11.50
2019-04-06T08:45:10.210Z,11.30
2019-04-06T08:47:39.407Z,11.30
2019-04-06T08:50:08.784Z,11.30
2019-04-06T08:52:37.870Z,11.40
2019-04-06T08:55:07.268Z,11.40
2019-04-06T08:57:36.308Z,11.40
2019-04-06T09:00:08.283Z,11.60
2019-04-06T09:02:37.344Z,11.70
2019-04-06T09:05:08.232Z,11.80
2019-04-06T09:07:37.279Z,11.90
2019-04-06T09:10:06.901Z,11.90
2019-04-06T09:12:35.936Z,12.00
2019-04-06T09:15:08.014Z,12.10
2019-04-06T09:17:37.094Z,11.90
2019-04-06T09:20:08.297Z,11.90
2019-04-06T09:22:37.383Z,11.90
2019-04-06T09:25:07.034Z,12.00
2019-04-06T09:27:36.060Z,12.10
2019-04-06T09:30:07.100Z,12.20
2019-04-06T09:32:36.269Z,12.30
2019-04-06T09:35:06.167Z,12.30
2019-04-06T09:37:35.550Z,12.30
2019-04-06T09:40:06.566Z,12.40
2019-04-06T09:42:35.610Z,12.50
2019-04-06T09:45:21.390Z,12.50
2019-04-06T09:47:58.165Z,12.60
2019-04-06T09:50:34.362Z,12.70
2019-04-06T09:53:21.193Z,12.90
2019-04-06T09:55:51.980Z,12.90
2019-04-06T09:58:25.752Z,12.90
2019-04-06T10:00:59.320Z,13.00
2019-04-06T10:03:32.824Z,13.10
2019-04-06T10:06:03.555Z,13.20
2019-04-06T10:08:37.393Z,13.30
2019-04-06T10:11:25.995Z,13.30
2019-04-06T10:13:59.791Z,13.40
2019-04-06T10:16:30.477Z,13.50
2019-04-06T10:19:01.178Z,13.60
2019-04-06T10:21:48.081Z,13.60
2019-04-06T10:24:18.781Z,13.60
2019-04-06T10:27:01.813Z,13.70
2019-04-06T10:29:32.965Z,13.80
2019-04-06T10:32:03.743Z,13.90
2019-04-06T10:34:40.576Z,14.00
2019-04-06T10:37:13.855Z,14.10
2019-04-06T10:39:47.352Z,14.30
2019-04-06T10:42:30.062Z,14.40
2019-04-06T10:45:03.762Z,14.50
2019-04-06T10:47:43.821Z,14.50
2019-04-06T10:50:31.172Z,14.60
2019-04-06T10:53:13.934Z,14.70
2019-04-06T10:55:44.666Z,14.70
2019-04-06T10:58:18.625Z,14.80
2019-04-06T11:01:04.718Z,14.90
2019-04-06T11:03:50.587Z,14.90
2019-04-06T11:06:27.293Z,15.00
2019-04-06T11:09:04.279Z,15.10
2019-04-06T11:11:35.610Z,15.20
2019-04-06T11:14:06.636Z,15.30
2019-04-06T11:16:43.396Z,15.40
2019-04-06T11:19:14.082Z,15.50
2019-04-06T11:22:03.036Z,15.60
2019-04-06T11:24:42.459Z,15.60
2019-04-06T11:27:19.491Z,15.70
2019-04-06T11:30:11.269Z,15.80
2019-04-06T11:32:37.928Z,16.00
2019-04-06T11:35:18.280Z,16.10
2019-04-06T11:37:58.294Z,16.10
2019-04-06T11:40:28.974Z,16.30
2019-04-06T11:43:05.710Z,16.40
2019-04-06T11:45:51.542Z,16.40
2019-04-06T11:48:31.556Z,16.40
2019-04-06T11:51:18.856Z,16.40
2019-04-06T11:53:58.392Z,16.50
2019-04-06T11:56:29.305Z,16.60
2019-04-06T11:59:16.831Z,16.70
2019-04-06T12:01:53.558Z,16.80
2019-04-06T12:04:30.524Z,16.90
2019-04-06T12:07:10.461Z,16.90
2019-04-06T12:09:43.899Z,16.90
2019-04-06T12:12:29.989Z,17.10
2019-04-06T12:15:09.489Z,17.20
2019-04-06T12:17:58.327Z,17.30
2019-04-06T12:20:37.615Z,17.40
2019-04-06T12:23:24.548Z,17.50
2019-04-06T12:25:55.258Z,17.50
2019-04-06T12:28:28.782Z,17.60
2019-04-06T12:31:05.852Z,17.60
2019-04-06T12:33:36.543Z,17.60
2019-04-06T12:36:13.594Z,17.60
2019-04-06T12:38:44.620Z,17.70
2019-04-06T12:41:30.661Z,17.70
2019-04-06T12:44:13.527Z,17.80
2019-04-06T12:47:00.567Z,17.90
2019-04-06T12:49:46.363Z,18.00
2019-04-06T12:52:17.077Z,18.00
2019-04-06T12:55:02.883Z,18.10
2019-04-06T12:57:36.291Z,18.20
2019-04-06T13:00:14.686Z,18.30
2019-04-06T13:03:01.613Z,18.50
2019-04-06T13:05:50.415Z,18.70
2019-04-06T13:08:27.333Z,18.80
2019-04-06T13:11:19.067Z,19.00
2019-04-06T13:13:48.708Z,19.10
2019-04-06T13:16:28.544Z,19.20
2019-04-06T13:19:04.932Z,19.30
2019-04-06T13:21:47.817Z,19.50
2019-04-06T13:24:24.630Z,19.70
2019-04-06T13:26:57.933Z,19.90
2019-04-06T13:29:34.540Z,20.00
2019-04-06T13:32:20.411Z,20.10
2019-04-06T13:35:03.470Z,20.20
2019-04-06T13:37:36.806Z,20.30
2019-04-06T13:40:25.168Z,20.40
2019-04-06T13:43:12.013Z,20.50
2019-04-06T13:45:52.006Z,20.60
2019-04-06T13:48:39.498Z,20.70
2019-04-06T13:51:10.584Z,20.80
2019-04-06T13:53:53.637Z,20.90
2019-04-06T13:56:36.473Z,20.80
2019-04-06T13:59:23.634Z,20.80
2019-04-06T14:02:03.765Z,20.80
2019-04-06T14:04:43.425Z,20.90
2019-04-06T14:07:17.015Z,21.10
2019-04-06T14:09:47.775Z,21.30
2019-04-06T14:12:18.511Z,21.50
2019-04-06T14:15:04.444Z,21.50
2019-04-06T14:17:41.193Z,21.30
2019-04-06T14:20:28.546Z,21.40
2019-04-06T14:23:05.156Z,21.50
2019-04-06T14:25:41.541Z,21.70
2019-04-06T14:28:12.247Z,22.00
2019-04-06T14:30:54.794Z,22.30
2019-04-06T14:33:41.878Z,22.40
2019-04-06T14:36:24.589Z,22.40
2019-04-06T14:38:55.204Z,22.50
2019-04-06T14:41:41.152Z,22.50
2019-04-06T14:44:27.682Z,22.50
2019-04-06T14:46:58.369Z,22.50
2019-04-06T14:49:34.524Z,22.60
2019-04-06T14:52:07.817Z,22.70
2019-04-06T14:54:38.212Z,22.80
2019-04-06T14:57:08.769Z,22.90
2019-04-06T14:59:39.265Z,22.90
2019-04-06T15:02:09.670Z,22.90
2019-04-06T15:04:52.588Z,23.10
2019-04-06T15:07:23.016Z,23.20
2019-04-06T15:09:56.448Z,23.50
2019-04-06T15:12:29.462Z,23.50
2019-04-06T15:15:05.470Z,23.50
2019-04-06T15:17:35.894Z,23.60
2019-04-06T15:20:23.016Z,23.70
2019-04-06T15:22:59.452Z,23.60
2019-04-06T15:25:38.654Z,23.50
2019-04-06T15:28:27.362Z,23.30
2019-04-06T15:31:00.428Z,23.30
2019-04-06T15:33:49.134Z,23.30
2019-04-06T15:36:20.070Z,23.10
2019-04-06T15:38:59.516Z,23.10
2019-04-06T15:41:32.508Z,23.00
2019-04-06T15:44:02.918Z,23.10
2019-04-06T15:46:45.313Z,23.20
2019-04-06T15:49:24.507Z,23.30
2019-04-06T15:51:54.964Z,23.40
2019-04-06T15:54:25.374Z,23.30
2019-04-06T15:56:56.083Z,23.30
2019-04-06T15:59:29.246Z,23.30
2019-04-06T16:02:05.737Z,23.30
2019-04-06T16:04:54.283Z,23.30
2019-04-06T16:07:31.093Z,23.20
2019-04-06T16:09:56.822Z,23.00
2019-04-06T16:12:43.529Z,22.80
2019-04-06T16:15:16.915Z,22.70
2019-04-06T16:17:53.271Z,22.40
2019-04-06T16:20:26.437Z,22.10
2019-04-06T16:23:06.258Z,22.00
2019-04-06T16:25:42.982Z,21.80
2019-04-06T16:28:13.811Z,21.50
2019-04-06T16:30:44.780Z,21.40
2019-04-06T16:33:15.379Z,21.20
2019-04-06T16:35:55.117Z,21.10
2019-04-06T16:38:38.014Z,21.00
2019-04-06T16:41:08.793Z,21.00
2019-04-06T16:43:39.892Z,20.80
2019-04-06T16:46:10.642Z,20.70
2019-04-06T16:48:58.280Z,20.60
2019-04-06T16:51:40.934Z,20.40
2019-04-06T16:54:14.633Z,20.30
2019-04-06T16:56:45.348Z,20.20
2019-04-06T16:59:16.495Z,20.20
2019-04-06T17:01:49.804Z,20.10
2019-04-06T17:04:20.504Z,20.00
2019-04-06T17:07:07.594Z,19.90
2019-04-06T17:09:48.003Z,19.90
2019-04-06T17:12:34.073Z,19.70
2019-04-06T17:15:20.515Z,19.60
2019-04-06T17:17:51.370Z,19.50
2019-04-06T17:20:28.548Z,19.50
2019-04-06T17:22:59.399Z,19.40
2019-04-06T17:25:30.125Z,19.40
2019-04-06T17:28:17.022Z,19.30
2019-04-06T17:30:50.852Z,19.30
2019-04-06T17:33:21.655Z,19.20
2019-04-06T17:36:07.707Z,19.10
2019-04-06T17:38:54.746Z,19.00
2019-04-06T17:41:42.200Z,18.80
2019-04-06T17:44:22.303Z,18.70
2019-04-06T17:46:56.085Z,18.60
2019-04-06T17:49:42.963Z,18.60
2019-04-06T17:52:25.641Z,18.60
2019-04-06T17:55:12.632Z,18.50
2019-04-06T17:57:49.155Z,18.40
2019-04-06T18:00:29.009Z,18.30
2019-04-06T18:03:18.216Z,18.10
2019-04-06T18:05:54.786Z,18.00
2019-04-06T18:08:42.100Z,17.80
2019-04-06T18:11:12.825Z,17.80
2019-04-06T18:13:51.110Z,17.60
2019-04-06T18:16:23.140Z,17.50
2019-04-06T18:18:55.873Z,17.40
2019-04-06T18:21:24.937Z,17.30
2019-04-06T18:23:54.303Z,17.40
2019-04-06T18:26:23.475Z,17.30
2019-04-06T18:28:52.740Z,17.20
2019-04-06T18:31:23.768Z,17.20
2019-04-06T18:33:52.841Z,17.10
2019-04-06T18:36:23.710Z,17.00
2019-04-06T18:38:54.934Z,16.90
2019-04-06T18:41:24.522Z,16.80
2019-04-06T18:43:53.864Z,16.80
2019-04-06T18:46:23.052Z,16.70
2019-04-06T18:48:52.176Z,16.60
2019-04-06T18:51:21.256Z,16.50
2019-04-06T18:53:50.366Z,16.50
2019-04-06T18:56:19.967Z,16.40
2019-04-06T18:58:49.316Z,16.40
2019-04-06T19:01:18.405Z,16.40
2019-04-06T19:03:47.539Z,16.30
2019-04-06T19:06:19.007Z,16.30
2019-04-06T19:08:48.141Z,16.20
2019-04-06T19:11:17.380Z,16.10
2019-04-06T19:13:46.525Z,16.10
2019-04-06T19:16:17.330Z,16.10
2019-04-06T19:18:46.674Z,15.90
2019-04-06T19:21:16.383Z,15.90
2019-04-06T19:23:45.595Z,15.90
2019-04-06T19:26:15.058Z,15.90
2019-04-06T19:28:44.598Z,15.90
2019-04-06T19:31:13.939Z,15.80
2019-04-06T19:33:43.156Z,15.80
2019-04-06T19:36:12.441Z,15.80
2019-04-06T19:38:41.583Z,15.80
2019-04-06T19:41:10.653Z,15.70
2019-04-06T19:43:40.008Z,15.70
2019-04-06T19:46:09.157Z,15.60
2019-04-06T19:48:40.503Z,15.50
2019-04-06T19:51:09.071Z,15.50
2019-04-06T19:53:38.137Z,15.40
2019-04-06T19:56:07.706Z,15.40
2019-04-06T19:58:37.089Z,15.30
2019-04-06T20:01:06.823Z,15.20
2019-04-06T20:03:38.548Z,15.10
2019-04-06T20:06:06.844Z,15.00
2019-04-06T20:08:36.259Z,15.00
2019-04-06T20:11:05.520Z,15.00
2019-04-06T20:13:34.615Z,14.90
2019-04-06T20:16:04.633Z,14.90
2019-04-06T20:18:33.821Z,14.80
2019-04-06T20:21:03.426Z,14.70
2019-04-06T20:23:32.631Z,14.70
2019-04-06T20:26:01.689Z,14.60
2019-04-06T20:28:30.995Z,14.60
2019-04-06T20:31:00.129Z,14.50
2019-04-06T20:33:29.537Z,14.50
2019-04-06T20:35:58.769Z,14.40
2019-04-06T20:38:27.897Z,14.40
2019-04-06T20:40:57.214Z,14.40
2019-04-06T20:43:27.553Z,14.30
2019-04-06T20:45:56.749Z,14.30
2019-04-06T20:48:25.830Z,14.20
2019-04-06T20:50:55.119Z,14.20
2019-04-06T20:53:24.258Z,14.10
2019-04-06T20:55:53.451Z,14.10
2019-04-06T20:58:22.518Z,14.10
2019-04-06T21:00:51.596Z,14.00
2019-04-06T21:03:20.671Z,14.00
2019-04-06T21:05:49.750Z,14.00
2019-04-06T21:08:18.855Z,13.90
2019-04-06T21:10:48.518Z,13.80
2019-04-06T21:13:17.694Z,13.80
2019-04-06T21:15:46.834Z,13.80
2019-04-06T21:18:15.886Z,13.70
2019-04-06T21:20:45.294Z,13.70
2019-04-06T21:23:15.133Z,13.70
2019-04-06T21:25:45.225Z,13.60
2019-04-06T21:28:14.485Z,13.60
2019-04-06T21:30:43.586Z,13.50
2019-04-06T21:33:13.123Z,13.50
2019-04-06T21:35:42.467Z,13.50
2019-04-06T21:38:12.177Z,13.40
2019-04-06T21:40:41.348Z,13.40
2019-04-06T21:43:10.456Z,13.30
2019-04-06T21:45:39.589Z,13.30
2019-04-06T21:48:08.646Z,13.30
2019-04-06T21:50:37.714Z,13.20
2019-04-06T21:53:07.114Z,13.20
2019-04-06T21:55:36.849Z,13.20
2019-04-06T21:58:06.261Z,13.10
2019-04-06T22:00:55.728Z,13.10
2019-04-06T22:03:25.025Z,13.10
2019-04-06T22:05:54.248Z,13.00
2019-04-06T22:08:23.382Z,12.90
2019-04-06T22:10:52.864Z,12.90
2019-04-06T22:13:22.409Z,12.90
2019-04-06T22:15:51.788Z,12.80
2019-04-06T22:18:21.876Z,12.80
2019-04-06T22:20:51.294Z,12.80
2019-04-06T22:23:20.871Z,12.80
2019-04-06T22:25:50.521Z,12.70
2019-04-06T22:28:19.668Z,12.70
2019-04-06T22:30:48.738Z,12.60
2019-04-06T22:33:17.791Z,12.60
2019-04-06T22:35:47.530Z,12.50
2019-04-06T22:38:17.108Z,12.50
2019-04-06T22:40:46.442Z,12.40
2019-04-06T22:43:15.719Z,12.30
2019-04-06T22:45:45.389Z,12.30
2019-04-06T22:48:15.365Z,12.20
2019-04-06T22:50:44.406Z,12.20
2019-04-06T22:53:13.478Z,12.10
2019-04-06T22:55:42.976Z,12.10
2019-04-06T22:58:12.172Z,12.10
2019-04-06T23:00:48.950Z,12.00
2019-04-06T23:03:36.669Z,12.00
2019-04-06T23:06:14.244Z,11.90
2019-04-06T23:08:43.825Z,11.90
2019-04-06T23:11:12.982Z,11.90
2019-04-06T23:13:42.115Z,11.80
2019-04-06T23:16:11.409Z,11.80
2019-04-06T23:18:41.238Z,11.80
2019-04-06T23:21:11.914Z,11.70
2019-04-06T23:23:40.977Z,11.70
2019-04-06T23:26:10.118Z,11.60
2019-04-06T23:28:39.266Z,11.60
2019-04-06T23:31:08.300Z,11.50
2019-04-06T23:33:38.011Z,11.50
2019-04-06T23:36:07.778Z,11.40
2019-04-06T23:38:37.347Z,11.40
2019-04-06T23:41:07.065Z,11.40
2019-04-06T23:43:36.141Z,11.40
2019-04-06T23:46:05.192Z,11.30
2019-04-06T23:48:34.825Z,11.30
2019-04-06T23:51:04.050Z,11.20
2019-04-06T23:53:33.186Z,11.20
2019-04-06T23:56:02.686Z,11.10
2019-04-06T23:58:32.467Z,11.10
